Time;durP1;ratioP1;P1;durP2;ratioP2;P2;SDS_P1;SDS_P2;PMS_P1;PMS_P2;Temp;Humidity;BMP_temperature;BMP_pressure;BME280_temperature;BME280_humidity;BME280_pressure;Samples;Min_cycle;Max_cycle;Signal;HPM_P1;HPM_P2
2020/12/08 00:00:58;;;;;;;5.00;3.60;;;18.30;45.40;;;;;;4981315;28;20268;-60
2020/12/08 00:03:25;;;;;;;4.72;3.83;;;18.30;45.50;;;;;;4981547;28;20225;-60
2020/12/08 00:05:51;;;;;;;5.28;4.10;;;18.30;45.40;;;;;;4981549;28;20184;-60
2020/12/08 00:08:17;;;;;;;3.80;3.47;;;18.30;45.30;;;;;;4973024;28;20192;-60
2020/12/08 00:10:42;;;;;;;5.18;3.70;;;18.20;45.30;;;;;;4981446;28;20214;-60
2020/12/08 00:13:08;;;;;;;4.68;3.47;;;18.20;45.70;;;;;;4981715;28;20235;-60
2020/12/08 00:15:34;;;;;;;3.85;3.33;;;18.20;45.60;;;;;;4980610;28;20244;-60
2020/12/08 00:17:59;;;;;;;4.95;3.65;;;18.20;45.50;;;;;;4981907;28;20248;-60
2020/12/08 00:20:26;;;;;;;4.25;3.60;;;18.20;45.60;;;;;;4980565;28;20193;-60
2020/12/08 00:22:51;;;;;;;4.20;3.55;;;18.10;45.50;;;;;;4981038;28;20193;-60
2020/12/08 00:25:19;;;;;;;4.18;3.28;;;18.10;45.60;;;;;;4973435;28;20211;-60
2020/12/08 00:27:44;;;;;;;4.65;3.80;;;18.10;45.60;;;;;;4964673;28;20666;-60
2020/12/08 00:30:13;;;;;;;3.97;3.47;;;18.20;45.50;;;;;;4979469;28;20194;-60
2020/12/08 00:32:40;;;;;;;4.25;3.53;;;18.20;45.50;;;;;;4981057;28;20194;-60
2020/12/08 00:35:07;;;;;;;3.85;3.45;;;18.20;45.50;;;;;;4981493;28;20822;-60
2020/12/08 00:37:33;;;;;;;4.05;3.58;;;18.20;45.40;;;;;;4980613;28;20197;-60
2020/12/08 00:39:59;;;;;;;4.00;3.45;;;18.20;45.40;;;;;;4962764;28;20185;-60
2020/12/08 00:42:25;;;;;;;5.30;3.45;;;18.10;45.60;;;;;;4981375;28;20182;-59
2020/12/08 00:44:51;;;;;;;4.22;3.45;;;18.00;45.60;;;;;;4972644;28;20206;-60
2020/12/08 00:47:17;;;;;;;4.18;3.60;;;18.00;45.60;;;;;;4981029;28;20185;-60
2020/12/08 00:49:42;;;;;;;3.90;3.50;;;18.00;45.60;;;;;;4978645;28;20196;-60
2020/12/08 00:52:09;;;;;;;4.05;3.30;;;17.90;45.60;;;;;;4963246;28;20221;-60
2020/12/08 00:54:37;;;;;;;4.43;3.78;;;18.00;45.80;;;;;;4960281;28;20217;-60
2020/12/08 00:57:09;;;;;;;5.28;3.40;;;17.90;45.80;;;;;;4993602;28;20225;-60
2020/12/08 00:59:37;;;;;;;4.85;3.25;;;17.90;45.70;;;;;;4978150;28;20189;-60
2020/12/08 01:02:05;;;;;;;6.03;3.53;;;17.90;45.80;;;;;;4980382;28;20239;-60
2020/12/08 01:04:32;;;;;;;4.10;3.60;;;17.90;45.70;;;;;;4979098;28;20209;-60
2020/12/08 01:06:57;;;;;;;4.07;3.50;;;17.90;45.70;;;;;;4980183;28;20204;-60
2020/12/08 01:09:23;;;;;;;4.28;3.38;;;17.90;45.60;;;;;;4966275;28;20686;-60
2020/12/08 01:11:49;;;;;;;4.03;3.63;;;17.90;45.80;;;;;;4976693;28;20959;-60
2020/12/08 01:14:22;;;;;;;4.50;3.45;;;17.80;45.80;;;;;;4966130;28;20765;-60
2020/12/08 01:16:48;;;;;;;3.65;3.15;;;17.80;45.80;;;;;;4972161;28;20693;-60
2020/12/08 01:19:13;;;;;;;3.53;3.22;;;17.80;45.90;;;;;;4962439;28;20181;-60
2020/12/08 01:21:39;;;;;;;4.43;3.63;;;17.80;45.90;;;;;;4978234;28;20201;-60
2020/12/08 01:24:06;;;;;;;4.38;3.63;;;17.80;45.80;;;;;;4978609;28;20213;-60
2020/12/08 01:26:32;;;;;;;4.05;3.45;;;17.80;45.90;;;;;;4965024;28;20284;-60
2020/12/08 01:29:01;;;;;;;4.00;3.47;;;17.70;45.80;;;;;;4992240;28;20198;-60
2020/12/08 01:31:33;;;;;;;4.85;3.63;;;17.70;45.90;;;;;;4979819;28;20779;-60
2020/12/08 01:34:04;;;;;;;3.58;3.28;;;17.70;45.90;;;;;;4967461;28;20221;-59
2020/12/08 01:36:30;;;;;;;4.60;3.90;;;17.70;46.00;;;;;;4985135;28;20218;-60
2020/12/08 01:38:56;;;;;;;4.72;3.30;;;17.70;46.00;;;;;;4985194;28;20557;-60
2020/12/08 01:41:22;;;;;;;3.92;3.30;;;17.70;45.80;;;;;;4983933;28;20185;-60
2020/12/08 01:43:52;;;;;;;3.83;3.35;;;17.70;45.90;;;;;;4964120;28;20289;-60
2020/12/08 01:46:26;;;;;;;4.43;3.38;;;17.70;46.00;;;;;;4989501;28;20284;-60
2020/12/08 01:48:54;;;;;;;4.10;3.50;;;17.60;46.00;;;;;;4964391;28;20186;-60
2020/12/08 01:51:22;;;;;;;4.18;3.60;;;17.60;46.00;;;;;;4983119;28;20601;-60
2020/12/08 01:53:50;;;;;;;3.92;3.53;;;17.60;46.00;;;;;;4985002;28;20285;-59
2020/12/08 01:56:16;;;;;;;3.88;3.47;;;17.60;46.10;;;;;;4984064;28;20297;-59
2020/12/08 01:58:46;;;;;;;4.10;3.53;;;17.70;46.00;;;;;;4967564;28;20190;-58
2020/12/08 02:01:14;;;;;;;3.80;3.40;;;17.70;46.00;;;;;;4997549;28;20560;-59
2020/12/08 02:03:42;;;;;;;4.03;3.63;;;17.60;46.00;;;;;;4982604;28;20450;-60
2020/12/08 02:06:09;;;;;;;4.03;3.60;;;17.50;46.20;;;;;;4965702;28;20190;-60
2020/12/08 02:08:37;;;;;;;4.40;3.38;;;17.50;46.20;;;;;;4968326;28;20232;-59
2020/12/08 02:11:06;;;;;;;4.03;3.53;;;17.50;46.10;;;;;;4980119;28;20185;-60
2020/12/08 02:13:33;;;;;;;5.47;3.88;;;17.50;46.10;;;;;;4981216;28;20300;-60
2020/12/08 02:16:00;;;;;;;5.10;3.38;;;17.50;46.20;;;;;;4982388;28;20197;-59
2020/12/08 02:18:26;;;;;;;4.32;3.90;;;17.50;46.20;;;;;;4983006;28;20235;-60
2020/12/08 02:20:58;;;;;;;3.80;3.35;;;17.50;46.30;;;;;;4981340;28;20675;-60
2020/12/08 02:23:27;;;;;;;4.20;3.75;;;17.50;46.20;;;;;;4982634;28;20797;-60
2020/12/08 02:26:01;;;;;;;3.88;3.42;;;17.40;46.30;;;;;;4982591;28;20190;-60
2020/12/08 02:28:29;;;;;;;4.30;3.78;;;17.50;46.30;;;;;;4984594;28;20185;-60
2020/12/08 02:30:57;;;;;;;4.78;3.60;;;17.50;46.20;;;;;;4982314;28;20182;-60
2020/12/08 02:33:28;;;;;;;4.53;4.00;;;17.40;46.20;;;;;;4983478;28;20217;-60
2020/12/08 02:35:56;;;;;;;4.30;3.70;;;17.50;46.20;;;;;;4983319;28;20193;-60
2020/12/08 02:38:26;;;;;;;5.50;3.72;;;17.40;46.20;;;;;;4983281;28;20209;-60
2020/12/08 02:40:53;;;;;;;3.55;3.22;;;17.40;46.20;;;;;;4982552;28;20216;-59
2020/12/08 02:43:20;;;;;;;5.72;4.13;;;17.40;46.10;;;;;;4983214;28;20264;-60
2020/12/08 02:45:46;;;;;;;4.93;3.85;;;17.40;46.10;;;;;;4982629;28;21086;-60
2020/12/08 02:48:12;;;;;;;4.75;3.78;;;17.40;46.10;;;;;;4982797;28;20198;-60
2020/12/08 02:50:38;;;;;;;4.53;3.65;;;17.40;46.70;;;;;;4981936;28;20189;-60
2020/12/08 02:53:05;;;;;;;5.07;3.65;;;17.40;46.20;;;;;;4982263;28;20197;-60
2020/12/08 02:55:31;;;;;;;5.32;3.95;;;17.40;46.30;;;;;;4982314;28;20596;-59
2020/12/08 02:57:57;;;;;;;4.70;4.00;;;17.30;46.30;;;;;;4982019;28;20224;-60
2020/12/08 03:00:23;;;;;;;5.53;3.90;;;17.30;46.20;;;;;;4978023;28;20190;-60
2020/12/08 03:02:49;;;;;;;4.68;3.75;;;17.30;46.30;;;;;;4978387;28;20182;-60
2020/12/08 03:05:15;;;;;;;4.18;3.47;;;17.30;46.30;;;;;;4981906;28;20231;-60
2020/12/08 03:07:41;;;;;;;5.30;4.32;;;17.30;46.30;;;;;;4981871;28;20189;-60
2020/12/08 03:10:08;;;;;;;4.68;3.88;;;17.30;46.40;;;;;;4965097;28;20216;-59
2020/12/08 03:12:37;;;;;;;4.40;3.88;;;17.30;46.30;;;;;;4967528;28;20190;-60
2020/12/08 03:15:05;;;;;;;4.30;3.90;;;17.30;46.80;;;;;;4996674;28;20308;-59
2020/12/08 03:17:36;;;;;;;5.53;4.65;;;17.30;46.30;;;;;;4962956;28;20225;-60
2020/12/08 03:20:04;;;;;;;5.18;4.43;;;17.20;46.30;;;;;;4995541;28;20182;-60
2020/12/08 03:22:35;;;;;;;5.35;4.70;;;17.30;46.30;;;;;;4981844;28;20269;-60
2020/12/08 03:25:03;;;;;;;5.75;4.50;;;17.30;46.20;;;;;;4983364;28;21007;-60
2020/12/08 03:27:29;;;;;;;6.30;4.85;;;17.30;46.30;;;;;;4968858;28;20194;-60
2020/12/08 03:29:59;;;;;;;6.03;4.97;;;17.20;46.30;;;;;;4995829;28;20193;-60
2020/12/08 03:32:26;;;;;;;6.47;5.00;;;17.20;46.50;;;;;;4981932;28;20708;-60
2020/12/08 03:34:53;;;;;;;4.82;4.22;;;17.20;46.30;;;;;;4981439;28;20201;-60
2020/12/08 03:37:19;;;;;;;6.65;5.00;;;17.20;46.40;;;;;;4981155;28;20218;-60
2020/12/08 03:39:46;;;;;;;6.07;4.50;;;17.20;47.10;;;;;;4981457;28;20197;-60
2020/12/08 03:42:13;;;;;;;6.97;4.88;;;17.20;46.50;;;;;;4981134;28;20268;-60
2020/12/08 03:44:41;;;;;;;5.50;4.80;;;17.20;46.50;;;;;;4981124;28;20210;-60
2020/12/08 03:47:17;;;;;;;5.03;4.47;;;17.20;46.50;;;;;;4981063;28;20205;-60
2020/12/08 03:49:42;;;;;;;6.80;5.18;;;17.20;46.60;;;;;;4981867;28;20185;-60
2020/12/08 03:52:09;;;;;;;5.18;4.40;;;17.10;46.60;;;;;;4981264;28;20189;-60
2020/12/08 03:54:35;;;;;;;5.97;4.90;;;17.10;46.60;;;;;;4980149;28;20209;-59
2020/12/08 03:57:05;;;;;;;6.65;5.20;;;17.20;46.60;;;;;;4980906;28;20343;-60
2020/12/08 03:59:32;;;;;;;7.03;5.78;;;17.20;46.60;;;;;;4980987;28;20196;-59
2020/12/08 04:02:05;;;;;;;8.52;5.57;;;17.10;46.60;;;;;;4982440;28;20174;-59
2020/12/08 04:04:31;;;;;;;6.97;5.82;;;17.10;46.70;;;;;;4980438;28;20499;-60
2020/12/08 04:06:57;;;;;;;7.18;5.60;;;17.20;46.70;;;;;;4964334;28;20197;-60
2020/12/08 04:09:23;;;;;;;6.82;5.70;;;17.20;46.70;;;;;;4980559;28;20189;-60
2020/12/08 04:11:49;;;;;;;8.32;5.95;;;17.20;46.80;;;;;;4979621;28;20289;-60
2020/12/08 04:14:16;;;;;;;7.55;5.75;;;17.10;46.70;;;;;;4980089;28;20912;-60
2020/12/08 04:16:45;;;;;;;7.15;5.78;;;17.10;47.00;;;;;;4981554;28;20670;-60
2020/12/08 04:19:16;;;;;;;7.95;6.32;;;17.00;47.10;;;;;;4979369;28;20194;-60
2020/12/08 04:21:42;;;;;;;9.98;6.18;;;17.00;47.10;;;;;;4980380;28;20585;-59
2020/12/08 04:24:18;;;;;;;9.63;6.85;;;17.00;47.10;;;;;;4980949;28;20213;-60
2020/12/08 04:26:48;;;;;;;8.27;6.80;;;17.00;47.10;;;;;;4979807;28;20185;-60
2020/12/08 04:29:23;;;;;;;10.32;7.30;;;17.00;47.10;;;;;;4980008;28;20189;-60
2020/12/08 04:31:52;;;;;;;9.05;6.93;;;16.90;47.40;;;;;;4980112;28;20661;-60
2020/12/08 04:34:18;;;;;;;9.88;7.93;;;17.00;47.40;;;;;;4980565;28;20228;-60
2020/12/08 04:36:44;;;;;;;12.25;7.80;;;17.00;47.10;;;;;;4980803;28;20288;-60
2020/12/08 04:39:09;;;;;;;10.48;7.88;;;17.00;47.10;;;;;;4981197;28;20184;-60
2020/12/08 04:41:35;;;;;;;9.38;7.60;;;17.00;47.50;;;;;;4980954;28;20630;-60
2020/12/08 04:44:02;;;;;;;11.43;8.88;;;17.00;47.30;;;;;;4981540;28;20209;-60
2020/12/08 04:46:28;;;;;;;12.18;9.02;;;16.90;47.30;;;;;;4981636;28;20240;-60
2020/12/08 04:48:54;;;;;;;12.30;8.93;;;17.00;47.50;;;;;;4980767;28;20634;-60
2020/12/08 04:51:19;;;;;;;11.43;8.73;;;16.90;47.40;;;;;;4980851;28;20193;-60
2020/12/08 04:53:52;;;;;;;11.90;8.68;;;16.90;47.60;;;;;;4980843;28;20304;-60
2020/12/08 04:56:17;;;;;;;12.82;9.70;;;17.00;47.40;;;;;;4980309;28;20291;-60
2020/12/08 04:58:43;;;;;;;13.27;9.43;;;17.00;47.30;;;;;;4981069;28;20982;-60
2020/12/08 05:01:10;;;;;;;12.82;9.60;;;17.00;47.40;;;;;;4980200;28;20196;-60
2020/12/08 05:03:37;;;;;;;11.63;9.10;;;17.00;47.40;;;;;;4980682;28;20321;-60
2020/12/08 05:06:05;;;;;;;13.45;9.38;;;17.00;47.50;;;;;;4978923;28;20189;-60
2020/12/08 05:08:30;;;;;;;14.05;10.13;;;17.00;48.00;;;;;;4980788;28;20691;-60
2020/12/08 05:11:07;;;;;;;11.70;8.40;;;16.90;47.30;;;;;;4979934;28;20190;-60
2020/12/08 05:13:32;;;;;;;14.32;8.95;;;16.90;47.50;;;;;;4977555;28;20214;-60
2020/12/08 05:16:04;;;;;;;15.57;9.95;;;16.90;47.50;;;;;;4980563;28;20273;-60
2020/12/08 05:18:35;;;;;;;12.50;8.85;;;17.00;47.50;;;;;;4980037;28;20208;-60
2020/12/08 05:21:09;;;;;;;13.13;9.57;;;17.00;47.40;;;;;;4980310;28;20196;-60
2020/12/08 05:23:47;;;;;;;14.60;9.25;;;16.90;47.50;;;;;;4980226;28;20669;-59
2020/12/08 05:26:15;;;;;;;14.98;10.55;;;17.00;47.70;;;;;;4979771;28;20185;-60
2020/12/08 05:28:42;;;;;;;14.07;10.85;;;17.00;47.70;;;;;;4980635;28;20306;-60
2020/12/08 05:31:09;;;;;;;16.23;11.20;;;17.10;47.80;;;;;;4979600;28;20188;-60
2020/12/08 05:33:38;;;;;;;16.25;11.75;;;17.10;47.80;;;;;;4980025;28;20316;-60
2020/12/08 05:36:04;;;;;;;14.57;10.55;;;17.10;48.00;;;;;;4979574;28;20584;-60
2020/12/08 05:38:38;;;;;;;14.10;10.00;;;17.10;48.30;;;;;;4980390;28;20189;-59
2020/12/08 05:41:06;;;;;;;14.82;10.20;;;17.20;48.20;;;;;;4979067;28;20182;-60
2020/12/08 05:43:39;;;;;;;17.10;10.75;;;17.30;48.10;;;;;;4980376;28;21021;-60
2020/12/08 05:46:07;;;;;;;15.55;10.82;;;17.30;48.30;;;;;;4979807;28;20190;-60
2020/12/08 05:48:34;;;;;;;18.52;11.98;;;17.50;48.60;;;;;;4979654;28;20260;-60
2020/12/08 05:51:09;;;;;;;23.10;12.20;;;17.50;48.30;;;;;;4980702;28;20182;-60
2020/12/08 05:53:34;;;;;;;20.63;11.98;;;17.70;48.00;;;;;;4981230;28;20197;-60
2020/12/08 05:56:07;;;;;;;17.00;11.60;;;17.80;47.60;;;;;;4981148;28;20633;-60
2020/12/08 05:58:35;;;;;;;20.48;13.57;;;17.70;47.50;;;;;;4967008;28;20197;-60
2020/12/08 06:01:05;;;;;;;24.02;16.65;;;17.70;47.80;;;;;;4979425;28;20297;-60
2020/12/08 06:03:31;;;;;;;39.75;25.45;;;17.70;47.60;;;;;;4981206;28;20304;-60
2020/12/08 06:06:10;;;;;;;49.80;36.50;;;17.80;47.30;;;;;;4980017;28;20202;-60
2020/12/08 06:08:43;;;;;;;66.50;47.10;;;17.80;47.10;;;;;;4980921;28;20184;-60
2020/12/08 06:11:09;;;;;;;63.40;41.85;;;17.80;47.10;;;;;;4979481;28;20204;-60
2020/12/08 06:13:35;;;;;;;61.97;43.42;;;17.90;47.90;;;;;;4980396;28;20213;-60
2020/12/08 06:16:13;;;;;;;64.78;44.47;;;17.80;48.50;;;;;;4980216;28;20236;-59
2020/12/08 06:18:39;;;;;;;73.28;50.15;;;17.90;48.70;;;;;;4981329;28;20186;-60
2020/12/08 06:21:24;;;;;;;69.18;51.00;;;18.00;48.90;;;;;;4983134;28;20845;-57
2020/12/08 06:23:53;;;;;;;72.80;52.05;;;17.90;48.90;;;;;;4982942;28;20865;-60
2020/12/08 06:26:26;;;;;;;68.90;49.20;;;18.00;48.90;;;;;;4983144;28;20372;-59
2020/12/08 06:28:52;;;;;;;70.03;50.08;;;18.00;48.70;;;;;;4982417;28;20177;-66
2020/12/08 06:31:19;;;;;;;71.13;50.67;;;17.90;48.60;;;;;;4983266;28;20181;-60
2020/12/08 06:33:55;;;;;;;70.03;49.80;;;17.90;48.40;;;;;;4982687;28;20206;-61
2020/12/08 06:36:23;;;;;;;68.78;48.90;;;18.00;47.90;;;;;;4975055;28;20263;-61
2020/12/08 06:38:55;;;;;;;67.25;49.20;;;18.00;47.50;;;;;;4984130;28;20634;-61
2020/12/08 06:41:30;;;;;;;66.60;48.88;;;18.00;47.40;;;;;;4976056;28;20190;-61
2020/12/08 06:43:56;;;;;;;62.75;48.08;;;17.90;48.00;;;;;;4984286;28;20271;-59
2020/12/08 06:46:22;;;;;;;64.00;46.92;;;17.90;48.60;;;;;;4983663;28;20650;-61
2020/12/08 06:48:59;;;;;;;67.60;48.33;;;17.90;48.70;;;;;;4984141;28;20186;-60
2020/12/08 06:51:25;;;;;;;61.97;45.33;;;17.90;48.80;;;;;;4977646;28;20573;-60
2020/12/08 06:53:51;;;;;;;64.43;45.55;;;18.00;48.80;;;;;;4983447;28;20221;-61
2020/12/08 06:56:29;;;;;;;58.78;44.72;;;18.00;49.00;;;;;;4979321;28;20225;-61
2020/12/08 06:58:55;;;;;;;59.67;43.53;;;18.00;49.00;;;;;;4979956;28;20205;-63
2020/12/08 07:01:21;;;;;;;56.75;42.92;;;18.10;49.10;;;;;;4983820;28;20194;-60
2020/12/08 07:03:48;;;;;;;58.45;43.30;;;18.10;48.40;;;;;;4983798;28;20210;-60
2020/12/08 07:06:14;;;;;;;59.30;42.60;;;18.20;47.90;;;;;;4982652;28;20186;-60
2020/12/08 07:08:43;;;;;;;59.58;42.85;;;18.30;47.50;;;;;;4983008;28;20178;-60
2020/12/08 07:11:23;;;;;;;55.60;43.05;;;18.30;47.40;;;;;;4982627;28;20603;-61
2020/12/08 07:13:58;;;;;;;57.75;42.05;;;18.20;47.30;;;;;;4983181;28;20229;-61
2020/12/08 07:16:25;;;;;;;61.28;42.65;;;18.30;47.60;;;;;;4979394;28;20212;-61
2020/12/08 07:18:52;;;;;;;56.78;42.08;;;18.20;48.20;;;;;;4980569;28;20217;-61
2020/12/08 07:21:19;;;;;;;54.77;39.43;;;18.10;48.60;;;;;;4970091;28;20406;-61
2020/12/08 07:23:45;;;;;;;50.40;38.33;;;18.10;48.90;;;;;;4982322;28;20562;-60
2020/12/08 07:26:14;;;;;;;47.33;37.38;;;18.20;48.70;;;;;;4983227;28;20193;-61
2020/12/08 07:28:40;;;;;;;47.35;37.47;;;18.20;48.80;;;;;;4981697;28;20182;-60
2020/12/08 07:31:17;;;;;;;51.22;37.78;;;18.20;48.70;;;;;;4982503;28;20674;-61
2020/12/08 07:33:43;;;;;;;43.63;34.13;;;18.30;48.50;;;;;;4982590;28;20312;-61
2020/12/08 07:36:20;;;;;;;47.70;35.50;;;18.30;48.50;;;;;;4981957;28;20239;-60
2020/12/08 07:38:49;;;;;;;47.58;34.70;;;18.30;48.60;;;;;;4981188;28;20220;-61
2020/12/08 07:41:23;;;;;;;41.22;32.17;;;18.30;48.60;;;;;;4981625;28;20216;-61
2020/12/08 07:43:49;;;;;;;42.30;32.13;;;18.50;48.50;;;;;;4982223;28;20209;-61
2020/12/08 07:46:30;;;;;;;44.28;32.10;;;18.50;48.40;;;;;;4982218;28;20563;-61
2020/12/08 07:49:10;;;;;;;40.78;30.40;;;18.50;48.40;;;;;;4981915;28;20565;-61
2020/12/08 07:51:39;;;;;;;40.70;31.48;;;18.50;48.10;;;;;;4981696;28;20193;-61
2020/12/08 07:54:06;;;;;;;41.58;30.20;;;18.60;48.20;;;;;;4982525;28;20221;-59
2020/12/08 07:56:34;;;;;;;40.78;29.67;;;18.10;48.70;;;;;;4982453;28;20209;-60
2020/12/08 07:59:00;;;;;;;42.35;28.80;;;17.70;50.00;;;;;;4980785;28;20194;-60
2020/12/08 08:01:26;;;;;;;40.90;28.15;;;17.50;50.40;;;;;;4982492;28;20182;-60
2020/12/08 08:04:23;;;;;;;38.55;28.27;;;17.30;50.40;;;;;;4982027;28;20229;-60
2020/12/08 08:06:48;;;;;;;45.05;28.90;;;17.20;50.30;;;;;;4978202;28;20263;-59
2020/12/08 08:09:14;;;;;;;35.67;24.60;;;17.20;50.40;;;;;;4981596;28;20182;-60
2020/12/08 08:11:40;;;;;;;39.85;24.60;;;17.20;50.30;;;;;;4981682;28;20689;-61
2020/12/08 08:14:06;;;;;;;38.03;23.17;;;17.10;50.30;;;;;;4981486;28;20237;-61
2020/12/08 08:16:34;;;;;;;45.47;25.02;;;17.00;50.50;;;;;;4981346;28;20213;-61
2020/12/08 08:19:00;;;;;;;44.85;24.38;;;17.00;51.00;;;;;;4981303;28;20182;-61
2020/12/08 08:21:26;;;;;;;37.70;22.77;;;17.00;51.30;;;;;;4981055;28;20193;-61
2020/12/08 08:23:52;;;;;;;39.70;22.08;;;17.00;51.10;;;;;;4981791;28;20275;-60
2020/12/08 08:26:18;;;;;;;38.70;21.85;;;17.00;51.40;;;;;;4973817;28;20190;-60
2020/12/08 08:28:44;;;;;;;35.90;20.15;;;17.00;51.20;;;;;;4980795;28;20192;-61
2020/12/08 08:31:10;;;;;;;38.53;22.10;;;17.00;51.20;;;;;;4980884;28;20192;-64
2020/12/08 08:33:36;;;;;;;34.58;20.05;;;17.00;51.30;;;;;;4981087;28;20625;-66
2020/12/08 08:36:02;;;;;;;33.83;20.27;;;17.00;51.40;;;;;;4980989;28;20756;-61
2020/12/08 08:38:28;;;;;;;33.83;20.50;;;17.10;51.20;;;;;;4981220;28;20197;-60
2020/12/08 08:40:55;;;;;;;32.13;19.83;;;17.40;51.00;;;;;;4980022;28;20998;-61
2020/12/08 08:43:22;;;;;;;33.70;22.20;;;17.80;49.90;;;;;;4980791;28;20308;-61
2020/12/08 08:45:47;;;;;;;32.55;19.30;;;18.10;49.30;;;;;;4980945;28;20193;-60
2020/12/08 08:48:13;;;;;;;30.88;20.42;;;18.20;48.60;;;;;;4981096;28;20316;-61
2020/12/08 08:50:39;;;;;;;35.08;20.98;;;18.40;48.50;;;;;;4980102;28;20948;-61
2020/12/08 08:53:05;;;;;;;35.67;23.85;;;18.40;48.40;;;;;;4980477;28;20189;-61
2020/12/08 08:55:31;;;;;;;35.42;24.83;;;18.50;48.10;;;;;;4981146;28;20197;-62
2020/12/08 08:57:57;;;;;;;33.30;23.58;;;18.50;47.90;;;;;;4980182;28;20204;-61
2020/12/08 09:00:23;;;;;;;31.55;21.98;;;18.60;47.80;;;;;;4980562;28;20177;-61
2020/12/08 09:02:49;;;;;;;30.83;22.05;;;18.60;47.70;;;;;;4980456;28;20185;-60
2020/12/08 09:05:14;;;;;;;29.52;21.45;;;18.60;47.50;;;;;;4979560;28;20205;-60
2020/12/08 09:07:41;;;;;;;31.20;21.95;;;18.60;47.90;;;;;;4976017;28;20604;-60
2020/12/08 09:10:07;;;;;;;29.52;22.02;;;18.70;47.60;;;;;;4977955;28;20189;-60
2020/12/08 09:12:33;;;;;;;33.45;22.10;;;18.70;47.10;;;;;;4979769;28;20186;-59
2020/12/08 09:15:00;;;;;;;32.45;22.38;;;18.70;46.60;;;;;;4979726;28;20927;-60
2020/12/08 09:17:26;;;;;;;33.15;22.92;;;18.70;46.60;;;;;;4980090;28;20214;-60
2020/12/08 09:19:53;;;;;;;29.50;22.40;;;18.30;47.10;;;;;;4980346;28;20185;-61
2020/12/08 09:22:20;;;;;;;30.25;21.77;;;17.80;48.90;;;;;;4979884;28;20188;-61
2020/12/08 09:24:46;;;;;;;32.15;21.60;;;17.50;48.00;;;;;;4981014;28;20201;-61
2020/12/08 09:27:14;;;;;;;31.65;21.13;;;17.40;50.10;;;;;;4980074;28;20202;-60
2020/12/08 09:29:40;;;;;;;28.85;17.77;;;17.30;50.80;;;;;;4980767;28;20217;-61
2020/12/08 09:32:06;;;;;;;28.90;18.27;;;17.30;51.00;;;;;;4980667;28;20182;-61
2020/12/08 09:34:32;;;;;;;28.98;18.58;;;17.20;47.40;;;;;;4980024;28;20209;-61
2020/12/08 09:36:58;;;;;;;28.90;20.45;;;17.20;50.90;;;;;;4980914;28;20209;-61
2020/12/08 09:39:24;;;;;;;30.33;21.33;;;17.20;49.80;;;;;;4979688;28;20181;-60
2020/12/08 09:41:51;;;;;;;27.85;20.90;;;17.20;51.00;;;;;;4980400;28;20185;-61
2020/12/08 09:44:17;;;;;;;30.58;20.77;;;17.20;51.10;;;;;;4980655;28;20204;-66
2020/12/08 09:46:44;;;;;;;29.20;20.50;;;17.20;48.30;;;;;;4980401;28;20191;-68
2020/12/08 09:49:11;;;;;;;30.45;17.85;;;16.90;47.10;;;;;;4979655;28;20198;-66
2020/12/08 09:51:37;;;;;;;26.80;16.05;;;16.70;48.00;;;;;;4978430;28;20188;-67
2020/12/08 09:54:04;;;;;;;30.42;17.08;;;16.40;47.90;;;;;;4983721;28;20210;-65
2020/12/08 09:56:30;;;;;;;25.58;15.70;;;16.10;48.00;;;;;;4966316;28;20209;-67
2020/12/08 09:58:56;;;;;;;25.20;15.80;;;16.00;48.80;;;;;;4982098;28;20193;-61
2020/12/08 10:01:25;;;;;;;25.42;14.13;;;16.20;51.70;;;;;;4984143;28;20866;-60
2020/12/08 10:03:52;;;;;;;27.90;15.60;;;16.60;52.40;;;;;;4982599;28;20291;-61
2020/12/08 10:06:18;;;;;;;27.05;15.20;;;16.60;49.10;;;;;;4976414;28;20189;-62
2020/12/08 10:08:44;;;;;;;25.65;16.05;;;16.60;50.30;;;;;;4983934;28;20562;-63
2020/12/08 10:11:11;;;;;;;26.38;15.60;;;16.70;51.00;;;;;;4981677;28;20182;-62
2020/12/08 10:13:37;;;;;;;27.17;16.15;;;16.70;50.80;;;;;;4983819;28;20288;-62
2020/12/08 10:16:03;;;;;;;24.65;13.95;;;16.80;51.50;;;;;;4983451;28;21037;-62
2020/12/08 10:18:28;;;;;;;21.77;13.75;;;16.90;51.60;;;;;;4983727;28;20858;-62
2020/12/08 10:20:55;;;;;;;28.67;15.80;;;17.00;51.70;;;;;;4981639;28;20267;-62
2020/12/08 10:23:21;;;;;;;26.55;16.23;;;17.10;51.00;;;;;;4985251;28;20209;-62
2020/12/08 10:25:46;;;;;;;25.77;15.13;;;17.10;49.80;;;;;;4983241;28;20193;-62
2020/12/08 10:28:13;;;;;;;27.08;14.68;;;17.00;50.00;;;;;;4984286;28;20281;-61
2020/12/08 10:30:39;;;;;;;27.33;14.45;;;17.00;48.50;;;;;;4984616;28;20240;-61
2020/12/08 10:33:05;;;;;;;25.90;14.68;;;17.00;50.80;;;;;;4982892;28;20193;-61
2020/12/08 10:35:31;;;;;;;27.67;16.35;;;17.00;50.80;;;;;;4985159;28;20848;-61
2020/12/08 10:37:56;;;;;;;24.00;15.18;;;17.10;50.20;;;;;;4985026;28;20659;-61
2020/12/08 10:40:22;;;;;;;29.40;15.82;;;17.10;50.30;;;;;;4984166;28;20801;-61
2020/12/08 10:42:48;;;;;;;24.25;13.70;;;17.10;49.70;;;;;;4984808;28;20201;-61
2020/12/08 10:45:14;;;;;;;27.23;14.63;;;17.00;50.00;;;;;;4983685;28;20583;-61
2020/12/08 10:47:40;;;;;;;26.90;13.85;;;17.00;49.70;;;;;;4983689;28;20802;-61
2020/12/08 10:50:06;;;;;;;23.10;14.00;;;17.00;50.00;;;;;;4982829;28;20184;-73
2020/12/08 10:52:31;;;;;;;25.13;14.25;;;17.00;50.10;;;;;;4982968;28;20668;-61
2020/12/08 10:54:57;;;;;;;25.58;15.32;;;17.00;50.10;;;;;;4982668;28;20217;-61
2020/12/08 10:57:23;;;;;;;20.80;14.00;;;17.00;50.00;;;;;;4982553;28;20286;-61
2020/12/08 10:59:49;;;;;;;23.90;14.82;;;17.10;51.00;;;;;;4981580;28;20192;-61
2020/12/08 11:02:15;;;;;;;24.92;14.77;;;17.20;51.40;;;;;;4983489;28;20189;-62
2020/12/08 11:04:41;;;;;;;28.38;15.27;;;17.20;51.00;;;;;;4982154;28;20516;-62
2020/12/08 11:07:06;;;;;;;28.98;16.35;;;17.30;51.00;;;;;;4983495;28;20283;-62
2020/12/08 11:09:32;;;;;;;26.40;16.35;;;17.30;50.50;;;;;;4983749;28;20748;-62
2020/12/08 11:11:58;;;;;;;23.98;15.13;;;17.30;50.80;;;;;;4984456;28;20934;-62
2020/12/08 11:14:24;;;;;;;23.55;15.18;;;17.30;50.80;;;;;;4982024;28;20221;-62
2020/12/08 11:16:50;;;;;;;24.08;17.13;;;17.30;50.70;;;;;;4980909;28;20292;-61
2020/12/08 11:19:16;;;;;;;24.27;16.15;;;17.40;50.60;;;;;;4983052;28;20186;-63
2020/12/08 11:21:42;;;;;;;26.08;16.40;;;17.30;50.30;;;;;;4982605;28;20197;-63
2020/12/08 11:24:08;;;;;;;24.05;17.67;;;17.30;50.20;;;;;;4982837;28;20672;-63
2020/12/08 11:26:35;;;;;;;24.00;16.73;;;17.30;50.20;;;;;;4981519;28;20204;-63
2020/12/08 11:29:02;;;;;;;21.75;16.35;;;17.30;50.60;;;;;;4983708;28;20186;-63
2020/12/08 11:31:29;;;;;;;24.67;17.42;;;17.20;50.40;;;;;;4984476;28;20181;-64
2020/12/08 11:33:55;;;;;;;22.58;16.23;;;17.20;49.80;;;;;;4981280;28;20221;-64
2020/12/08 11:36:20;;;;;;;23.98;16.83;;;17.20;50.60;;;;;;4984166;28;20189;-63
2020/12/08 11:38:46;;;;;;;25.80;16.73;;;17.30;50.30;;;;;;4983027;28;20208;-63
2020/12/08 11:41:12;;;;;;;23.20;16.77;;;17.20;49.50;;;;;;4982691;28;20181;-64
2020/12/08 11:43:39;;;;;;;26.30;16.17;;;17.10;50.70;;;;;;4983585;28;20209;-67
2020/12/08 11:46:05;;;;;;;25.83;16.48;;;17.20;50.30;;;;;;4983010;28;21037;-63
2020/12/08 11:48:31;;;;;;;25.85;17.30;;;17.20;50.70;;;;;;4982784;28;20228;-63
2020/12/08 11:50:57;;;;;;;25.05;16.77;;;17.20;50.80;;;;;;4982442;28;20189;-62
2020/12/08 11:53:23;;;;;;;26.02;16.63;;;17.20;51.20;;;;;;4983199;28;20209;-62
2020/12/08 11:55:50;;;;;;;27.23;15.85;;;17.20;51.00;;;;;;4982870;28;20182;-62
2020/12/08 11:58:16;;;;;;;22.90;15.25;;;17.30;52.20;;;;;;4982485;28;20198;-62
2020/12/08 12:00:42;;;;;;;22.20;15.98;;;17.30;51.70;;;;;;4982803;28;20190;-63
2020/12/08 12:03:08;;;;;;;28.55;16.30;;;17.30;49.70;;;;;;4981839;28;20181;-62
2020/12/08 12:05:34;;;;;;;27.15;16.42;;;17.30;50.40;;;;;;4981699;28;20213;-63
2020/12/08 12:08:00;;;;;;;25.48;15.75;;;17.30;51.50;;;;;;4983332;28;20200;-63
2020/12/08 12:10:26;;;;;;;25.88;16.45;;;17.30;50.70;;;;;;4982318;28;20193;-62
2020/12/08 12:12:52;;;;;;;23.00;16.10;;;17.30;50.10;;;;;;4983600;28;20605;-63
2020/12/08 12:15:18;;;;;;;24.33;15.90;;;17.20;51.70;;;;;;4974500;28;20217;-63
2020/12/08 12:17:44;;;;;;;24.63;16.55;;;17.30;51.90;;;;;;4981904;28;20374;-63
2020/12/08 12:20:10;;;;;;;21.85;15.80;;;17.40;50.50;;;;;;4983004;28;20189;-61
2020/12/08 12:22:36;;;;;;;21.48;15.70;;;17.40;51.50;;;;;;4982419;28;20181;-62
2020/12/08 12:25:04;;;;;;;21.95;15.23;;;17.40;50.80;;;;;;4982359;28;20213;-64
2020/12/08 12:27:30;;;;;;;21.45;15.00;;;17.40;49.90;;;;;;4982435;28;20185;-63
2020/12/08 12:29:57;;;;;;;23.88;16.33;;;17.40;50.50;;;;;;4981680;28;20185;-63
2020/12/08 12:32:22;;;;;;;20.95;15.20;;;17.40;50.80;;;;;;4981922;28;20185;-62
2020/12/08 12:34:48;;;;;;;18.95;14.88;;;17.40;50.30;;;;;;4982047;28;20783;-62
2020/12/08 12:37:14;;;;;;;23.27;15.02;;;17.40;51.10;;;;;;4982069;28;20248;-63